Time;durP1;ratioP1;P1;durP2;ratioP2;P2;SDS_P1;SDS_P2;PMS_P1;PMS_P2;Temp;Humidity;BMP_temperature;BMP_pressure;BME280_temperature;BME280_humidity;BME280_pressure;Samples;Min_cycle;Max_cycle;Signal;HPM_P1;HPM_P2
2023/01/15 00:00:13;;;;;;;76.18;73.28;;;3.70;96.90;;;;;;5029994;28;20036;-83
2023/01/15 00:02:39;;;;;;;76.13;73.22;;;3.70;96.90;;;;;;5031154;28;20038;-82
2023/01/15 00:05:06;;;;;;;80.10;77.03;;;3.70;96.90;;;;;;5031487;28;20120;-82
2023/01/15 00:07:31;;;;;;;;;;;3.70;96.90;;;;;;5031425;28;20032;-82
2023/01/15 00:09:57;;;;;;;81.70;78.60;;;3.70;96.90;;;;;;5034842;28;19928;-81
2023/01/15 00:12:23;;;;;;;79.03;76.00;;;3.60;96.80;;;;;;5031087;28;20033;-82
2023/01/15 00:14:49;;;;;;;78.68;75.68;;;3.60;96.90;;;;;;5029481;28;20346;-82
2023/01/15 00:17:14;;;;;;;79.00;76.00;;;3.70;96.90;;;;;;5012181;28;20114;-82
2023/01/15 00:19:40;;;;;;;80.28;77.18;;;3.70;97.00;;;;;;5029661;28;20042;-82
2023/01/15 00:22:06;;;;;;;81.50;78.35;;;3.80;97.00;;;;;;5029558;28;20154;-82
2023/01/15 00:30:00;;;;;;;77.85;74.85;;;3.90;97.00;;;;;;5015657;28;20045;-82
2023/01/15 00:32:28;;;;;;;80.85;77.75;;;4.00;96.90;;;;;;5029711;28;20025;-82
2023/01/15 00:34:54;;;;;;;82.25;79.05;;;4.00;96.90;;;;;;5030590;28;20104;-82
2023/01/15 00:37:20;;;;;;;;;;;4.00;96.90;;;;;;5029880;28;20407;-82
2023/01/15 00:39:46;;;;;;;80.15;77.05;;;4.00;96.90;;;;;;5030498;28;19909;-82
2023/01/15 00:42:12;;;;;;;81.53;78.35;;;4.00;96.80;;;;;;5029230;28;20029;-82
2023/01/15 00:44:38;;;;;;;82.60;79.40;;;4.00;96.70;;;;;;5029339;28;20037;-82
2023/01/15 00:47:05;;;;;;;83.95;80.70;;;3.90;96.80;;;;;;5029136;28;20060;-83
2023/01/15 00:49:30;;;;;;;86.13;82.80;;;3.90;96.80;;;;;;5028711;28;20631;-82
2023/01/15 00:51:56;;;;;;;87.40;84.03;;;3.90;96.80;;;;;;5028899;28;20030;-82
2023/01/15 00:54:22;;;;;;;85.32;82.03;;;3.80;96.80;;;;;;5012795;28;20061;-82
2023/01/15 00:56:48;;;;;;;85.80;82.50;;;3.80;96.90;;;;;;5028526;28;20022;-82
2023/01/15 00:59:14;;;;;;;83.30;80.10;;;3.80;97.00;;;;;;4995728;28;20137;-82
2023/01/15 01:01:39;;;;;;;83.93;80.72;;;3.90;97.10;;;;;;5028585;28;20124;-82
2023/01/15 01:04:05;;;;;;;80.70;77.60;;;4.00;97.10;;;;;;5011853;28;20036;-82
2023/01/15 01:06:31;;;;;;;81.75;78.60;;;4.10;97.10;;;;;;5012274;28;20124;-82
2023/01/15 01:08:56;;;;;;;79.70;76.70;;;4.20;97.10;;;;;;5012323;28;20026;-83
2023/01/15 01:11:25;;;;;;;83.53;80.32;;;4.20;97.00;;;;;;5029597;28;20231;-82
2023/01/15 01:13:52;;;;;;;80.85;77.75;;;4.30;97.00;;;;;;5029685;28;20428;-82
2023/01/15 01:16:21;;;;;;;84.95;81.75;;;4.30;97.00;;;;;;5029566;28;20025;-82
2023/01/15 01:18:47;;;;;;;81.35;78.25;;;4.40;97.00;;;;;;5028183;28;20028;-82
2023/01/15 01:21:13;;;;;;;85.55;82.30;;;4.40;97.00;;;;;;5028455;28;20038;-81
2023/01/15 01:23:39;;;;;;;81.65;78.50;;;4.40;97.00;;;;;;5029763;28;20033;-80
2023/01/15 01:26:04;;;;;;;84.22;81.03;;;4.50;97.00;;;;;;5029733;28;20284;-81
2023/01/15 01:28:30;;;;;;;82.88;79.72;;;4.50;97.00;;;;;;5029820;28;20084;-80
2023/01/15 01:30:56;;;;;;;84.15;80.95;;;4.50;97.00;;;;;;5028453;28;20029;-80
2023/01/15 01:33:21;;;;;;;84.05;80.85;;;4.60;97.00;;;;;;5028181;28;20030;-80
2023/01/15 01:35:50;;;;;;;88.13;84.82;;;4.60;97.00;;;;;;5017301;28;20068;-80
2023/01/15 01:38:16;;;;;;;83.70;80.50;;;4.60;97.00;;;;;;5027972;28;20032;-81
2023/01/15 01:40:42;;;;;;;88.15;84.82;;;4.70;97.00;;;;;;5011233;28;20029;-81
2023/01/15 01:43:21;;;;;;;84.90;81.70;;;4.70;97.00;;;;;;5029160;28;20112;-81
2023/01/15 01:45:47;;;;;;;86.70;83.40;;;4.70;97.00;;;;;;5028181;28;20040;-81
2023/01/15 01:48:14;;;;;;;89.88;86.47;;;4.70;96.90;;;;;;5011929;28;20025;-81
2023/01/15 01:50:41;;;;;;;86.88;83.55;;;4.70;96.90;;;;;;5029311;28;20041;-80
2023/01/15 01:53:13;;;;;;;88.07;84.78;;;4.60;96.80;;;;;;5011797;28;20029;-81
2023/01/15 01:55:40;;;;;;;86.45;83.15;;;4.60;96.80;;;;;;5029331;28;20025;-80
2023/01/15 01:58:08;;;;;;;87.45;84.15;;;4.50;96.80;;;;;;5027616;28;20049;-80
2023/01/15 02:00:37;;;;;;;86.70;83.40;;;4.50;96.90;;;;;;5011501;28;20551;-81
2023/01/15 02:03:05;;;;;;;89.28;85.88;;;4.50;96.90;;;;;;5028732;28;20038;-81
2023/01/15 02:05:35;;;;;;;85.53;82.22;;;4.50;96.90;;;;;;5027810;28;20026;-82
2023/01/15 02:08:02;;;;;;;89.90;86.50;;;4.40;96.80;;;;;;5027851;28;20027;-81
2023/01/15 02:10:27;;;;;;;86.75;83.45;;;4.40;96.80;;;;;;5027535;28;20289;-81
2023/01/15 02:13:09;;;;;;;88.00;84.63;;;4.30;96.80;;;;;;5027380;28;20104;-81
2023/01/15 02:15:40;;;;;;;89.45;86.05;;;4.30;96.90;;;;;;5026989;28;20024;-82
2023/01/15 02:18:21;;;;;;;89.45;86.05;;;4.30;96.90;;;;;;5029674;28;20021;-82
2023/01/15 02:20:55;;;;;;;92.85;89.35;;;4.20;96.90;;;;;;5029502;28;20017;-81
2023/01/15 02:23:39;;;;;;;89.57;86.18;;;4.20;97.00;;;;;;5029214;28;20426;-82
2023/01/15 02:26:27;;;;;;;90.35;86.93;;;4.30;97.00;;;;;;5026896;28;20029;-82
2023/01/15 02:28:57;;;;;;;91.78;88.28;;;4.30;97.00;;;;;;5028444;28;20029;-82
2023/01/15 02:31:32;;;;;;;92.70;89.20;;;4.30;96.90;;;;;;5028234;28;20028;-80
2023/01/15 02:34:02;;;;;;;94.65;91.05;;;4.30;96.90;;;;;;5028381;28;20033;-81
2023/01/15 02:36:32;;;;;;;90.22;86.82;;;4.30;96.90;;;;;;5028047;28;20474;-81
2023/01/15 02:39:01;;;;;;;93.05;89.55;;;4.30;97.00;;;;;;5028127;28;20091;-81
2023/01/15 02:41:33;;;;;;;93.60;90.00;;;4.30;97.10;;;;;;5028229;28;20029;-81
2023/01/15 02:44:01;;;;;;;92.32;88.82;;;4.40;97.10;;;;;;5027029;28;20032;-82
2023/01/15 02:46:31;;;;;;;91.93;88.43;;;4.40;97.00;;;;;;5027126;28;20433;-81
2023/01/15 02:48:59;;;;;;;94.78;91.18;;;4.40;96.90;;;;;;5027188;28;20056;-81
2023/01/15 02:51:30;;;;;;;95.88;92.18;;;4.40;96.90;;;;;;5027960;28;20084;-81
2023/01/15 02:54:00;;;;;;;96.15;92.45;;;4.40;96.90;;;;;;5027117;28;20026;-82
2023/01/15 02:56:30;;;;;;;98.57;94.82;;;4.40;97.00;;;;;;5026907;28;20075;-81
2023/01/15 02:59:02;;;;;;;96.55;92.85;;;4.40;97.00;;;;;;5028246;28;20091;-82
2023/01/15 03:01:33;;;;;;;92.20;88.70;;;4.40;97.00;;;;;;5029023;28;20022;-81
2023/01/15 03:04:15;;;;;;;99.75;95.95;;;4.40;97.00;;;;;;5029732;28;20021;-81
2023/01/15 03:07:32;;;;;;;96.45;92.75;;;4.50;97.10;;;;;;5027737;28;20029;-82
2023/01/15 03:09:58;;;;;;;92.38;88.88;;;4.50;97.10;;;;;;5025776;28;20589;-82
2023/01/15 03:13:01;;;;;;;94.10;90.43;;;4.50;97.10;;;;;;5010035;28;20045;-82
2023/01/15 03:18:27;;;;;;;89.60;86.15;;;4.60;97.10;;;;;;5028128;28;20097;-82
2023/01/15 03:20:58;;;;;;;90.20;86.70;;;4.70;97.10;;;;;;5026410;28;20025;-81
2023/01/15 03:23:26;;;;;;;88.82;85.43;;;4.70;97.10;;;;;;5027082;28;20029;-82
2023/01/15 03:25:52;;;;;;;89.70;86.20;;;4.80;97.00;;;;;;5029022;28;20034;-82
2023/01/15 03:28:24;;;;;;;89.68;86.22;;;4.80;97.10;;;;;;5032217;28;20044;-82
2023/01/15 03:30:50;;;;;;;88.47;85.07;;;4.80;97.10;;;;;;5030527;28;20041;-82
2023/01/15 03:33:17;;;;;;;88.43;85.03;;;4.80;97.00;;;;;;5031953;28;20157;-81
2023/01/15 03:35:48;;;;;;;;;;;4.80;97.10;;;;;;5031193;28;20053;-82
2023/01/15 03:38:16;;;;;;;84.30;81.03;;;4.80;97.10;;;;;;5030627;28;19937;-81
2023/01/15 03:41:07;;;;;;;85.00;81.70;;;4.90;97.10;;;;;;5030138;28;20021;-82
2023/01/15 03:44:02;;;;;;;82.15;79.00;;;4.90;97.20;;;;;;5032050;28;20033;-81
2023/01/15 03:46:56;;;;;;;82.70;79.50;;;5.00;97.30;;;;;;5030341;28;20441;-81
2023/01/15 03:49:27;;;;;;;86.32;83.03;;;5.00;97.30;;;;;;5031865;28;20021;-81
2023/01/15 03:52:05;;;;;;;83.43;80.22;;;5.10;97.30;;;;;;5031928;28;20054;-82
2023/01/15 03:55:11;;;;;;;82.03;78.93;;;5.20;97.40;;;;;;5030537;28;20052;-82
2023/01/15 03:57:43;;;;;;;85.10;81.88;;;5.30;97.20;;;;;;5030022;28;20057;-82
2023/01/15 04:00:29;;;;;;;85.28;81.97;;;5.40;97.20;;;;;;5031301;28;20061;-82
2023/01/15 04:02:56;;;;;;;85.78;82.47;;;5.40;97.20;;;;;;5029902;28;20033;-82
2023/01/15 04:05:25;;;;;;;83.53;80.32;;;5.40;97.10;;;;;;5029725;28;20045;-81
2023/01/15 04:07:53;;;;;;;82.80;79.60;;;5.40;97.10;;;;;;5029907;28;20299;-82
2023/01/15 04:10:19;;;;;;;86.70;83.40;;;5.40;97.10;;;;;;5030957;28;20017;-82
2023/01/15 04:12:45;;;;;;;86.30;83.00;;;5.40;97.10;;;;;;5031340;28;20036;-82
2023/01/15 04:15:12;;;;;;;84.28;81.07;;;5.30;97.10;;;;;;5030950;28;20478;-81
2023/01/15 04:17:38;;;;;;;82.25;79.10;;;5.30;97.10;;;;;;5029791;28;20080;-81
2023/01/15 04:20:05;;;;;;;81.43;78.32;;;5.30;97.10;;;;;;5030295;28;20033;-81
2023/01/15 04:22:30;;;;;;;84.03;80.78;;;5.30;97.20;;;;;;5029481;28;20034;-82
2023/01/15 04:24:56;;;;;;;81.20;78.10;;;5.20;97.20;;;;;;5030878;28;20197;-82
2023/01/15 04:27:22;;;;;;;82.00;78.82;;;5.30;97.20;;;;;;5029236;28;20041;-82
2023/01/15 04:29:48;;;;;;;82.78;79.57;;;5.30;97.20;;;;;;5031712;28;20061;-82
2023/01/15 04:32:14;;;;;;;85.10;81.80;;;5.20;97.20;;;;;;5017835;28;20037;-82
2023/01/15 04:34:39;;;;;;;84.72;81.47;;;5.30;97.20;;;;;;5012765;28;20033;-81
2023/01/15 04:37:05;;;;;;;86.78;83.40;;;5.30;97.20;;;;;;5028393;28;20036;-82
2023/01/15 04:39:31;;;;;;;84.70;81.40;;;5.20;97.20;;;;;;5030336;28;20112;-80
2023/01/15 04:44:41;;;;;;;85.40;82.10;;;5.30;97.20;;;;;;5030471;28;20404;-81
2023/01/15 04:47:07;;;;;;;86.80;83.45;;;5.30;97.20;;;;;;5028882;28;20028;-81
2023/01/15 04:49:34;;;;;;;84.95;81.65;;;5.20;97.20;;;;;;5012473;28;20049;-81
2023/01/15 04:52:00;;;;;;;86.53;83.22;;;5.20;97.20;;;;;;5030263;28;20032;-81
2023/01/15 04:54:25;;;;;;;88.10;84.70;;;5.20;97.20;;;;;;5012664;28;20137;-82
2023/01/15 04:56:53;;;;;;;88.13;84.72;;;5.20;97.10;;;;;;5028913;28;20039;-80
2023/01/15 04:59:22;;;;;;;87.45;84.05;;;5.20;97.10;;;;;;5028973;28;20521;-81
2023/01/15 05:01:49;;;;;;;90.85;87.35;;;5.10;97.10;;;;;;5030032;28;20071;-81
2023/01/15 05:04:14;;;;;;;90.38;86.88;;;5.10;97.10;;;;;;5030918;28;20018;-80
2023/01/15 05:06:40;;;;;;;87.53;84.13;;;5.10;97.10;;;;;;5028838;28;20045;-81
2023/01/15 05:09:06;;;;;;;86.55;83.25;;;5.10;97.10;;;;;;5012364;28;20095;-81
2023/01/15 05:11:38;;;;;;;86.85;83.45;;;5.00;97.10;;;;;;5030368;28;20371;-82
2023/01/15 05:14:05;;;;;;;83.15;79.95;;;5.00;97.10;;;;;;5030026;28;20076;-82
2023/01/15 05:16:32;;;;;;;86.63;83.32;;;5.00;97.10;;;;;;5028380;28;20021;-82
2023/01/15 05:19:02;;;;;;;81.18;78.07;;;5.00;97.10;;;;;;5029724;28;20032;-81
2023/01/15 05:21:36;;;;;;;80.15;77.05;;;5.00;97.10;;;;;;5029962;28;20025;-81
2023/01/15 05:24:05;;;;;;;77.38;74.38;;;5.00;97.20;;;;;;5028639;28;20032;-82
2023/01/15 05:26:32;;;;;;;78.43;75.43;;;5.00;97.20;;;;;;5029594;28;20037;-82
2023/01/15 05:28:59;;;;;;;80.80;77.70;;;5.00;97.20;;;;;;5028323;28;20029;-82
2023/01/15 05:31:25;;;;;;;78.80;75.80;;;5.10;97.20;;;;;;5029342;28;20120;-82
2023/01/15 05:33:53;;;;;;;77.68;74.68;;;5.10;97.20;;;;;;5028395;28;20053;-82
2023/01/15 05:36:24;;;;;;;78.88;75.88;;;5.10;97.20;;;;;;5029473;28;20028;-82
2023/01/15 05:38:51;;;;;;;79.82;76.78;;;5.10;97.20;;;;;;5028505;28;20328;-82
2023/01/15 05:44:07;;;;;;;77.50;74.50;;;5.10;97.10;;;;;;5029643;28;20039;-80
2023/01/15 05:46:34;;;;;;;79.10;76.10;;;5.10;97.20;;;;;;5027955;28;20129;-82
2023/01/15 05:49:06;;;;;;;79.03;76.03;;;5.10;97.20;;;;;;5026978;28;20083;-82
2023/01/15 05:51:36;;;;;;;79.90;76.80;;;5.10;97.20;;;;;;5029503;28;20105;-82
2023/01/15 05:54:03;;;;;;;77.18;74.20;;;5.10;97.20;;;;;;5028072;28;20025;-82
2023/01/15 05:56:29;;;;;;;78.15;75.15;;;5.10;97.20;;;;;;5027526;28;20032;-82
2023/01/15 05:58:55;;;;;;;80.60;77.50;;;5.10;97.20;;;;;;5011447;28;20054;-81
2023/01/15 06:01:21;;;;;;;77.15;74.15;;;5.20;97.20;;;;;;5027789;28;20044;-81
2023/01/15 06:03:48;;;;;;;79.25;76.15;;;5.20;97.20;;;;;;5011178;28;20062;-81
2023/01/15 06:06:15;;;;;;;81.70;78.57;;;5.20;97.20;;;;;;5027495;28;20063;-81
2023/01/15 06:08:41;;;;;;;78.88;75.85;;;5.30;97.20;;;;;;5027353;28;20400;-82
2023/01/15 06:11:07;;;;;;;77.50;74.50;;;5.30;97.20;;;;;;5028714;28;20025;-82
2023/01/15 06:13:33;;;;;;;80.35;77.25;;;5.30;97.20;;;;;;5011140;28;20030;-82
2023/01/15 06:15:59;;;;;;;;;;;5.30;97.20;;;;;;5029165;28;20449;-82
2023/01/15 06:18:25;;;;;;;76.53;73.53;;;5.30;97.20;;;;;;5028835;28;20218;-81
2023/01/15 06:20:51;;;;;;;78.30;75.30;;;5.30;97.20;;;;;;5029108;28;20026;-83
2023/01/15 06:23:17;;;;;;;78.32;75.32;;;5.40;97.20;;;;;;5027656;28;20096;-82
2023/01/15 06:25:43;;;;;;;;;;;5.40;97.20;;;;;;5028377;28;20044;-82
2023/01/15 06:28:10;;;;;;;76.18;73.28;;;5.40;97.20;;;;;;5029283;28;20006;-81
2023/01/15 06:30:38;;;;;;;76.15;73.20;;;5.50;97.20;;;;;;5028939;28;20068;-82
2023/01/15 06:33:05;;;;;;;77.50;74.50;;;5.50;97.20;;;;;;5027932;28;20036;-82
2023/01/15 06:35:31;;;;;;;78.65;75.65;;;5.50;97.20;;;;;;5028495;28;20032;-84
2023/01/15 06:37:56;;;;;;;75.20;72.30;;;5.60;97.20;;;;;;5011179;28;20038;-82
2023/01/15 06:40:22;;;;;;;78.05;75.05;;;5.60;97.20;;;;;;5027044;28;20125;-82
2023/01/15 06:48:26;;;;;;;78.95;75.93;;;5.70;97.20;;;;;;5027470;28;20040;-82
2023/01/15 06:50:52;;;;;;;80.40;77.30;;;5.70;97.20;;;;;;5027326;28;20037;-82
2023/01/15 06:53:18;;;;;;;;;;;5.70;97.10;;;;;;5027888;28;20029;-82
2023/01/15 06:55:44;;;;;;;84.88;81.57;;;5.70;97.10;;;;;;5028490;28;19909;-82
2023/01/15 06:58:10;;;;;;;94.65;90.95;;;5.70;97.10;;;;;;5028173;28;20052;-81
2023/01/15 07:00:36;;;;;;;94.93;91.20;;;5.70;97.00;;;;;;5028138;28;20045;-82
2023/01/15 07:03:03;;;;;;;98.93;95.03;;;5.70;97.00;;;;;;5026710;28;20033;-80
2023/01/15 07:05:29;;;;;;;94.38;90.65;;;5.60;97.00;;;;;;5028511;28;20057;-79
2023/01/15 07:07:56;;;;;;;98.57;94.65;;;5.60;97.00;;;;;;5027331;28;20447;-81
2023/01/15 07:10:24;;;;;;;97.70;93.80;;;5.60;97.10;;;;;;5027069;28;20041;-80
2023/01/15 07:12:50;;;;;;;98.97;95.07;;;5.60;97.10;;;;;;5028601;28;20033;-81
2023/01/15 07:15:16;;;;;;;98.80;94.82;;;5.60;97.10;;;;;;5011445;28;20025;-81
2023/01/15 07:17:42;;;;;;;102.30;98.20;;;5.60;97.10;;;;;;5028904;28;20436;-82
2023/01/15 07:20:08;;;;;;;105.55;101.32;;;5.60;97.10;;;;;;5030424;28;20402;-81
2023/01/15 07:22:34;;;;;;;104.50;100.28;;;5.60;97.10;;;;;;5029178;28;20125;-81
2023/01/15 07:25:00;;;;;;;105.93;101.63;;;5.60;97.10;;;;;;5014171;28;20595;-80
2023/01/15 07:27:26;;;;;;;105.35;101.15;;;5.60;97.10;;;;;;5030552;28;20131;-80
2023/01/15 07:29:52;;;;;;;;;;;5.60;97.10;;;;;;5011502;28;20516;-81
2023/01/15 07:32:18;;;;;;;110.78;106.32;;;5.60;97.10;;;;;;5029281;28;19913;-81
2023/01/15 07:34:44;;;;;;;105.15;100.88;;;5.60;97.00;;;;;;5029785;28;20069;-81
2023/01/15 07:37:10;;;;;;;111.85;107.35;;;5.60;97.00;;;;;;5010157;28;20041;-81
2023/01/15 07:39:35;;;;;;;104.88;100.65;;;5.60;97.00;;;;;;5026507;28;20116;-81
2023/01/15 07:50:17;;;;;;;113.22;108.63;;;5.50;97.00;;;;;;5028066;28;20523;-81
2023/01/15 07:52:43;;;;;;;113.63;109.03;;;5.50;97.10;;;;;;5027972;28;20458;-81
2023/01/15 07:55:11;;;;;;;111.95;107.38;;;5.50;97.00;;;;;;5028544;28;20036;-80
2023/01/15 07:57:37;;;;;;;109.93;105.43;;;5.50;97.00;;;;;;5026784;28;20061;-81
2023/01/15 08:00:05;;;;;;;110.90;106.40;;;5.50;97.00;;;;;;5026857;28;20033;-81
2023/01/15 08:02:31;;;;;;;111.15;106.55;;;5.60;97.10;;;;;;5027247;28;20040;-80
2023/01/15 08:04:56;;;;;;;110.85;106.30;;;5.50;97.00;;;;;;5029101;28;20029;-80
2023/01/15 08:07:25;;;;;;;108.63;104.13;;;5.50;97.00;;;;;;5026750;28;20035;-81
2023/01/15 08:09:51;;;;;;;107.00;102.57;;;5.60;97.10;;;;;;5027925;28;20052;-80
2023/01/15 08:15:13;;;;;;;111.75;107.15;;;5.50;97.10;;;;;;5035361;28;20087;-81
2023/01/15 08:17:40;;;;;;;108.35;103.95;;;5.50;97.10;;;;;;5032350;28;20025;-81
2023/01/15 08:20:13;;;;;;;105.22;100.90;;;5.60;97.10;;;;;;5033849;28;20116;-81
2023/01/15 08:22:39;;;;;;;108.38;103.88;;;5.60;97.10;;;;;;5037606;28;20109;-81
2023/01/15 08:25:07;;;;;;;109.43;104.93;;;5.60;97.10;;;;;;5017705;28;20108;-80
2023/01/15 08:27:32;;;;;;;106.55;102.18;;;5.60;97.10;;;;;;5033826;28;20444;-79
2023/01/15 08:29:58;;;;;;;108.28;103.88;;;5.60;97.10;;;;;;5032182;28;20034;-81
2023/01/15 08:32:24;;;;;;;107.40;103.00;;;5.70;97.10;;;;;;5029931;28;20060;-80
2023/01/15 08:34:50;;;;;;;110.15;105.65;;;5.70;97.10;;;;;;5030096;28;20071;-75
2023/01/15 08:37:16;;;;;;;107.35;102.95;;;5.70;97.10;;;;;;5029037;28;20494;-75
2023/01/15 08:39:41;;;;;;;107.75;103.35;;;5.70;97.10;;;;;;5028915;28;20044;-75
2023/01/15 08:42:07;;;;;;;107.75;103.35;;;5.80;97.10;;;;;;5012374;28;20056;-75
2023/01/15 08:44:33;;;;;;;107.50;103.10;;;5.80;97.10;;;;;;5012288;28;20430;-75
2023/01/15 08:46:59;;;;;;;107.28;102.88;;;5.80;97.10;;;;;;5012110;28;20076;-74
2023/01/15 08:49:24;;;;;;;108.70;104.30;;;5.80;97.10;;;;;;4996002;28;20021;-75
2023/01/15 08:51:50;;;;;;;106.32;101.93;;;5.80;97.10;;;;;;5028552;28;20045;-76
2023/01/15 08:54:21;;;;;;;109.18;104.75;;;5.80;97.10;;;;;;5028343;28;20048;-76
2023/01/15 08:56:48;;;;;;;107.60;103.20;;;5.80;97.10;;;;;;5011992;28;20033;-76
2023/01/15 08:59:14;;;;;;;111.45;106.88;;;5.80;97.10;;;;;;5028377;28;20046;-75
2023/01/15 09:01:40;;;;;;;106.38;101.97;;;5.80;97.10;;;;;;5028049;28;20496;-76
2023/01/15 09:04:06;;;;;;;106.13;101.72;;;5.80;97.20;;;;;;5011926;28;20034;-76
2023/01/15 09:06:32;;;;;;;106.05;101.65;;;5.80;97.20;;;;;;5028604;28;20021;-75
2023/01/15 09:08:59;;;;;;;103.78;99.47;;;5.90;97.20;;;;;;5012069;28;20072;-76
2023/01/15 09:11:25;;;;;;;103.68;99.32;;;5.90;97.20;;;;;;5029715;28;20062;-75
2023/01/15 09:13:50;;;;;;;105.32;100.97;;;6.00;97.20;;;;;;5028105;28;20417;-76
2023/01/15 09:16:16;;;;;;;104.00;99.70;;;6.00;97.20;;;;;;5027942;28;20371;-76
2023/01/15 09:18:43;;;;;;;103.78;99.50;;;6.00;97.20;;;;;;5011757;28;20083;-76
2023/01/15 09:21:09;;;;;;;103.43;99.18;;;6.00;97.20;;;;;;5028191;28;20136;-76
2023/01/15 09:23:35;;;;;;;104.28;99.97;;;6.00;97.20;;;;;;5029214;28;20104;-76
2023/01/15 09:26:04;;;;;;;103.38;99.07;;;6.00;97.20;;;;;;5027936;28;20137;-76
2023/01/15 09:28:31;;;;;;;100.28;96.13;;;6.10;97.20;;;;;;5029233;28;20492;-76
2023/01/15 09:30:57;;;;;;;101.88;97.68;;;6.10;97.20;;;;;;5011593;28;20033;-76
2023/01/15 09:33:23;;;;;;;105.30;100.95;;;6.10;97.20;;;;;;5011138;28;20455;-76
2023/01/15 09:35:49;;;;;;;103.85;99.60;;;6.20;97.20;;;;;;5010802;28;20037;-76
2023/01/15 09:38:17;;;;;;;104.78;100.50;;;6.20;97.20;;;;;;5011437;28;20075;-76
2023/01/15 09:40:50;;;;;;;104.18;99.93;;;6.20;97.20;;;;;;5029220;28;20022;-76
2023/01/15 09:43:36;;;;;;;103.80;99.53;;;6.20;97.20;;;;;;5029122;28;20037;-76
2023/01/15 09:46:38;;;;;;;106.82;102.43;;;6.30;97.20;;;;;;5027581;28;20498;-75
2023/01/15 09:49:24;;;;;;;104.80;100.50;;;6.30;97.20;;;;;;5028792;28;20045;-76
2023/01/15 09:52:12;;;;;;;105.47;101.13;;;6.30;97.20;;;;;;5028443;28;20026;-76
2023/01/15 09:54:55;;;;;;;106.20;101.90;;;6.40;97.20;;;;;;5027133;28;20493;-76
2023/01/15 09:57:24;;;;;;;107.68;103.28;;;6.40;97.20;;;;;;5026601;28;20060;-76
2023/01/15 09:59:59;;;;;;;108.05;103.65;;;6.40;97.20;;;;;;5026761;28;20034;-75
2023/01/15 10:02:39;;;;;;;110.82;106.32;;;6.50;97.20;;;;;;5028178;28;20029;-76
2023/01/15 10:05:08;;;;;;;107.25;102.88;;;6.50;97.20;;;;;;5027024;28;20095;-76
2023/01/15 10:07:38;;;;;;;107.50;103.10;;;6.50;97.20;;;;;;5026629;28;20356;-75
2023/01/15 10:10:13;;;;;;;106.47;102.18;;;6.60;97.30;;;;;;5027798;28;20028;-76
2023/01/15 10:12:39;;;;;;;105.68;101.38;;;6.60;97.20;;;;;;5026660;28;20022;-76
2023/01/15 10:15:13;;;;;;;;;;;6.70;97.30;;;;;;5010892;28;20090;-75
2023/01/15 10:17:47;;;;;;;104.90;100.65;;;6.70;97.30;;;;;;5026671;28;19936;-76
2023/01/15 10:20:15;;;;;;;106.25;101.95;;;6.70;97.20;;;;;;5027866;28;20029;-76
2023/01/15 10:23:01;;;;;;;113.65;109.05;;;6.80;97.30;;;;;;5026441;28;20029;-75
2023/01/15 10:25:55;;;;;;;112.28;107.70;;;6.90;97.20;;;;;;5026312;28;20029;-76
2023/01/15 10:28:29;;;;;;;105.15;100.85;;;6.90;97.30;;;;;;5023137;28;20132;-76
2023/01/15 10:31:00;;;;;;;108.65;104.25;;;6.90;97.20;;;;;;5026357;28;20095;-76
2023/01/15 10:33:55;;;;;;;109.10;104.70;;;6.90;97.20;;;;;;5026292;28;20503;-76
2023/01/15 10:36:29;;;;;;;110.60;106.13;;;7.00;97.30;;;;;;5021228;28;20044;-76
2023/01/15 10:39:14;;;;;;;112.13;107.63;;;7.00;97.20;;;;;;5028171;28;20022;-75
2023/01/15 10:41:55;;;;;;;109.57;105.13;;;7.10;97.30;;;;;;5027732;28;20152;-76
2023/01/15 10:44:47;;;;;;;105.10;100.80;;;7.10;97.30;;;;;;5027677;28;20049;-76
2023/01/15 10:47:17;;;;;;;111.97;107.47;;;7.10;97.30;;;;;;5027309;28;20033;-76
2023/01/15 10:49:44;;;;;;;110.22;105.82;;;7.10;97.20;;;;;;5025887;28;20029;-75
2023/01/15 10:52:22;;;;;;;;;;;7.20;97.20;;;;;;5026722;28;20429;-76
2023/01/15 10:54:52;;;;;;;111.95;107.45;;;7.10;97.20;;;;;;5025852;28;19941;-75
2023/01/15 10:57:35;;;;;;;106.97;102.68;;;7.10;97.20;;;;;;5025566;28;20022;-76
2023/01/15 11:00:01;;;;;;;106.90;102.50;;;7.20;97.30;;;;;;5026937;28;20025;-76
2023/01/15 11:02:27;;;;;;;;;;;7.20;97.30;;;;;;5025931;28;20029;-76
2023/01/15 11:04:53;;;;;;;104.50;100.20;;;7.30;97.40;;;;;;5026584;28;20396;-76
2023/01/15 11:07:40;;;;;;;102.07;97.88;;;7.30;97.30;;;;;;4994550;28;20049;-76
2023/01/15 11:10:14;;;;;;;108.15;103.75;;;7.30;97.30;;;;;;5026399;28;20029;-76
2023/01/15 11:21:23;;;;;;;106.35;101.95;;;7.30;97.20;;;;;;5018421;28;20049;-75
2023/01/15 11:23:49;;;;;;;103.18;98.88;;;7.30;97.20;;;;;;5025467;28;20036;-76
2023/01/15 11:26:24;;;;;;;106.75;102.38;;;7.20;97.20;;;;;;5025723;28;20061;-75
2023/01/15 11:28:52;;;;;;;107.47;103.05;;;7.20;97.20;;;;;;5025452;28;20069;-76
2023/01/15 11:31:18;;;;;;;108.63;104.13;;;7.10;97.10;;;;;;5027185;28;20029;-76
2023/01/15 11:34:02;;;;;;;105.60;101.30;;;7.10;97.20;;;;;;5025714;28;20389;-76
2023/01/15 11:36:28;;;;;;;102.85;98.55;;;7.10;97.30;;;;;;5025436;28;20030;-76
2023/01/15 11:38:54;;;;;;;103.18;98.88;;;7.10;97.30;;;;;;5026767;28;20021;-75
2023/01/15 11:52:53;;;;;;;105.00;100.65;;;7.20;97.40;;;;;;5030399;28;20032;-75
2023/01/15 11:55:23;;;;;;;99.20;95.10;;;7.30;97.40;;;;;;5029007;28;20105;-76
2023/01/15 11:57:50;;;;;;;100.32;96.18;;;7.30;97.40;;;;;;5028784;28;20088;-76
2023/01/15 12:00:41;;;;;;;100.13;96.03;;;7.40;97.40;;;;;;5028966;28;20063;-74
2023/01/15 12:03:19;;;;;;;101.47;97.30;;;7.40;97.40;;;;;;5030310;28;20032;-76
2023/01/15 12:05:53;;;;;;;100.70;96.60;;;7.50;97.40;;;;;;5028517;28;20033;-76
2023/01/15 12:08:31;;;;;;;99.78;95.78;;;7.60;97.50;;;;;;5030174;28;20067;-76
2023/01/15 12:11:31;;;;;;;97.68;93.78;;;7.70;97.50;;;;;;5028861;28;20022;-76
2023/01/15 12:14:07;;;;;;;98.60;94.70;;;7.80;97.40;;;;;;5024571;28;20058;-76
2023/01/15 12:16:40;;;;;;;96.40;92.50;;;7.90;97.40;;;;;;5028681;28;20033;-76
2023/01/15 12:19:44;;;;;;;98.32;94.43;;;8.00;97.40;;;;;;5028838;28;20029;-76
2023/01/15 12:22:37;;;;;;;96.13;92.22;;;8.00;97.40;;;;;;5029760;28;20527;-76
2023/01/15 12:25:12;;;;;;;97.30;93.40;;;8.10;97.30;;;;;;5029732;28;20022;-75
2023/01/15 12:28:23;;;;;;;96.25;92.45;;;8.10;97.30;;;;;;5028395;28;20500;-76
2023/01/15 12:31:00;;;;;;;97.22;93.32;;;8.00;97.30;;;;;;4990561;28;20096;-75
2023/01/15 12:33:34;;;;;;;94.45;90.68;;;8.10;97.30;;;;;;5027880;28;20068;-75
2023/01/15 12:36:09;;;;;;;101.70;97.70;;;8.10;97.30;;;;;;5029649;28;20025;-75
2023/01/15 12:38:55;;;;;;;99.57;95.57;;;8.00;97.20;;;;;;5029673;28;20036;-70
2023/01/15 12:47:19;;;;;;;102.03;97.93;;;7.80;97.30;;;;;;5029417;28;20044;-74
2023/01/15 12:49:55;;;;;;;100.30;96.30;;;7.70;97.30;;;;;;5029361;28;20025;-75
2023/01/15 12:52:27;;;;;;;95.40;91.60;;;7.70;97.40;;;;;;5029262;28;20049;-74
2023/01/15 12:55:13;;;;;;;97.10;93.22;;;7.70;97.40;;;;;;5027497;28;20095;-75
2023/01/15 12:57:44;;;;;;;96.32;92.53;;;7.70;97.40;;;;;;5026677;28;20128;-74
2023/01/15 13:00:18;;;;;;;93.40;89.70;;;7.70;97.40;;;;;;5027607;28;20021;-74
2023/01/15 13:03:16;;;;;;;94.25;90.55;;;7.70;97.40;;;;;;5028833;28;20030;-75
2023/01/15 13:06:01;;;;;;;92.20;88.50;;;7.70;97.40;;;;;;5027499;28;20026;-76
2023/01/15 13:08:32;;;;;;;91.60;87.90;;;7.70;97.40;;;;;;5027685;28;20025;-75
2023/01/15 13:10:57;;;;;;;90.55;86.95;;;7.70;97.40;;;;;;5028000;28;20177;-75
2023/01/15 13:13:37;;;;;;;94.32;90.53;;;7.70;97.40;;;;;;5027108;28;20138;-75
2023/01/15 13:16:12;;;;;;;93.72;90.03;;;7.70;97.40;;;;;;5027499;28;20029;-75
2023/01/15 13:18:50;;;;;;;94.53;90.83;;;7.70;97.40;;;;;;5027360;28;20060;-75
2023/01/15 13:21:19;;;;;;;92.93;89.25;;;7.70;97.40;;;;;;5027223;28;20021;-75
2023/01/15 13:24:07;;;;;;;93.82;90.15;;;7.60;97.40;;;;;;5027195;28;20049;-75
2023/01/15 13:26:51;;;;;;;90.78;87.28;;;7.60;97.40;;;;;;5028876;28;20112;-75
2023/01/15 13:29:43;;;;;;;91.40;87.85;;;7.70;97.50;;;;;;5026832;28;20036;-75
2023/01/15 13:32:37;;;;;;;81.68;78.47;;;7.70;97.60;;;;;;5027067;28;20148;-75
2023/01/15 13:35:31;;;;;;;87.60;84.20;;;7.80;97.60;;;;;;5023058;28;20026;-75
2023/01/15 13:38:04;;;;;;;81.03;77.82;;;8.00;97.60;;;;;;5026703;28;20064;-75
2023/01/15 13:40:38;;;;;;;81.15;77.95;;;8.00;97.40;;;;;;5026908;28;20034;-75
2023/01/15 13:43:06;;;;;;;82.10;78.90;;;8.10;97.40;;;;;;5028106;28;20025;-74
2023/01/15 13:45:41;;;;;;;80.75;77.55;;;8.10;97.50;;;;;;5027977;28;20037;-75
2023/01/15 13:48:25;;;;;;;79.22;76.13;;;8.20;97.50;;;;;;5026761;28;20029;-75